sensor_id;sensor_type;location;lat;lon;timestamp;pressure;altitude;pressure_sealevel;temperature;humidity
3968;BME280;9221;42.646;23.380;2022-10-16T00:01:32;95246.69;;;10.97;85.08
3968;BME280;9221;42.646;23.380;2022-10-16T00:03:59;95216.00;;;11.06;84.65
3968;BME280;9221;42.646;23.380;2022-10-16T00:06:25;95226.84;;;11.03;84.16
3968;BME280;9221;42.646;23.380;2022-10-16T00:08:52;95175.41;;;10.68;84.17
3968;BME280;9221;42.646;23.380;2022-10-16T00:11:23;95204.81;;;10.63;84.41
3968;BME280;9221;42.646;23.380;2022-10-16T00:13:51;95163.34;;;10.65;83.74
3968;BME280;9221;42.646;23.380;2022-10-16T00:16:36;95257.38;;;10.86;84.21
3968;BME280;9221;42.646;23.380;2022-10-16T00:19:02;95182.00;;;10.42;85.02
3968;BME280;9221;42.646;23.380;2022-10-16T00:21:29;95249.88;;;10.91;84.83
3968;BME280;9221;42.646;23.380;2022-10-16T00:23:57;95251.00;;;10.98;84.13
3968;BME280;9221;42.646;23.380;2022-10-16T00:26:25;95250.19;;;11.07;84.00
3968;BME280;9221;42.646;23.380;2022-10-16T00:28:52;95272.72;;;11.31;83.52
3968;BME280;9221;42.646;23.380;2022-10-16T00:31:20;95245.31;;;11.12;82.72
3968;BME280;9221;42.646;23.380;2022-10-16T00:33:46;95163.97;;;10.38;83.71
3968;BME280;9221;42.646;23.380;2022-10-16T00:36:14;95205.31;;;10.37;84.78
3968;BME280;9221;42.646;23.380;2022-10-16T00:38:40;95245.09;;;10.65;85.36
3968;BME280;9221;42.646;23.380;2022-10-16T00:41:09;95256.09;;;10.80;84.89
3968;BME280;9221;42.646;23.380;2022-10-16T00:46:17;95266.84;;;10.98;84.02
3968;BME280;9221;42.646;23.380;2022-10-16T00:49:15;95247.25;;;10.91;83.64
3968;BME280;9221;42.646;23.380;2022-10-16T00:51:50;95239.00;;;10.74;84.52
3968;BME280;9221;42.646;23.380;2022-10-16T00:54:24;95247.16;;;10.61;84.90
3968;BME280;9221;42.646;23.380;2022-10-16T00:56:51;95246.16;;;10.53;85.21
3968;BME280;9221;42.646;23.380;2022-10-16T00:59:24;95263.22;;;10.48;85.41
3968;BME280;9221;42.646;23.380;2022-10-16T01:01:50;95177.38;;;9.94;86.12
3968;BME280;9221;42.646;23.380;2022-10-16T01:04:16;95237.59;;;10.29;85.49
3968;BME280;9221;42.646;23.380;2022-10-16T01:14:27;95296.44;;;9.67;88.33
3968;BME280;9221;42.646;23.380;2022-10-16T01:17:05;95280.34;;;9.91;87.71
3968;BME280;9221;42.646;23.380;2022-10-16T01:19:44;95266.56;;;9.77;88.02
3968;BME280;9221;42.646;23.380;2022-10-16T01:22:15;95234.13;;;9.02;88.69
3968;BME280;9221;42.646;23.380;2022-10-16T01:24:46;95282.88;;;9.71;88.10
3968;BME280;9221;42.646;23.380;2022-10-16T01:27:32;95241.63;;;9.39;87.20
3968;BME280;9221;42.646;23.380;2022-10-16T01:30:32;95247.88;;;9.80;86.89
3968;BME280;9221;42.646;23.380;2022-10-16T01:33:08;95259.91;;;9.73;86.23
3968;BME280;9221;42.646;23.380;2022-10-16T01:35:38;95264.63;;;9.79;85.84
3968;BME280;9221;42.646;23.380;2022-10-16T01:38:19;95329.31;;;9.93;85.02
3968;BME280;9221;42.646;23.380;2022-10-16T01:40:50;95182.63;;;9.42;84.95
3968;BME280;9221;42.646;23.380;2022-10-16T01:43:22;95259.72;;;9.54;85.88
3968;BME280;9221;42.646;23.380;2022-10-16T01:45:51;95191.25;;;9.11;86.26
3968;BME280;9221;42.646;23.380;2022-10-16T01:48:18;95222.34;;;9.18;86.10
3968;BME280;9221;42.646;23.380;2022-10-16T01:50:54;95244.88;;;9.53;85.92
3968;BME280;9221;42.646;23.380;2022-10-16T01:53:22;95281.97;;;9.61;85.35
3968;BME280;9221;42.646;23.380;2022-10-16T01:55:50;95200.00;;;9.12;84.95
3968;BME280;9221;42.646;23.380;2022-10-16T01:58:17;95269.38;;;9.43;85.05
3968;BME280;9221;42.646;23.380;2022-10-16T02:00:44;95133.16;;;8.38;84.92
3968;BME280;9221;42.646;23.380;2022-10-16T02:03:12;95262.44;;;9.42;85.45
3968;BME280;9221;42.646;23.380;2022-10-16T02:05:46;95239.69;;;9.41;85.21
3968;BME280;9221;42.646;23.380;2022-10-16T02:08:12;95259.06;;;9.40;85.34
3968;BME280;9221;42.646;23.380;2022-10-16T02:10:38;95205.28;;;9.01;85.08
3968;BME280;9221;42.646;23.380;2022-10-16T02:15:56;95274.22;;;9.27;86.31
3968;BME280;9221;42.646;23.380;2022-10-16T02:18:22;95278.72;;;9.36;86.16
3968;BME280;9221;42.646;23.380;2022-10-16T02:20:55;95319.72;;;9.06;86.79
3968;BME280;9221;42.646;23.380;2022-10-16T02:26:13;95275.22;;;9.03;87.79
3968;BME280;9221;42.646;23.380;2022-10-16T02:28:46;95338.63;;;9.00;87.97
3968;BME280;9221;42.646;23.380;2022-10-16T02:31:21;95315.19;;;8.97;87.92
3968;BME280;9221;42.646;23.380;2022-10-16T02:33:48;95247.78;;;8.73;88.34
3968;BME280;9221;42.646;23.380;2022-10-16T02:36:16;95246.16;;;8.61;88.12
3968;BME280;9221;42.646;23.380;2022-10-16T02:38:41;95259.34;;;8.93;87.45
3968;BME280;9221;42.646;23.380;2022-10-16T02:41:07;95305.47;;;9.09;87.48
3968;BME280;9221;42.646;23.380;2022-10-16T02:43:33;95224.88;;;8.53;87.81
3968;BME280;9221;42.646;23.380;2022-10-16T02:45:59;95276.50;;;8.54;88.10
3968;BME280;9221;42.646;23.380;2022-10-16T02:48:25;95309.13;;;8.74;88.02
3968;BME280;9221;42.646;23.380;2022-10-16T02:50:50;95316.91;;;8.75;88.15
3968;BME280;9221;42.646;23.380;2022-10-16T02:53:16;95298.72;;;8.84;87.80
3968;BME280;9221;42.646;23.380;2022-10-16T02:55:41;95304.00;;;8.72;88.37
3968;BME280;9221;42.646;23.380;2022-10-16T02:58:07;95233.03;;;8.27;88.59
3968;BME280;9221;42.646;23.380;2022-10-16T03:00:32;95316.44;;;8.59;89.40
3968;BME280;9221;42.646;23.380;2022-10-16T03:02:58;95300.66;;;8.59;88.99
3968;BME280;9221;42.646;23.380;2022-10-16T03:05:23;95308.53;;;8.59;89.89
3968;BME280;9221;42.646;23.380;2022-10-16T03:07:48;95330.78;;;8.55;89.95
3968;BME280;9221;42.646;23.380;2022-10-16T03:10:14;95304.72;;;8.52;90.52
3968;BME280;9221;42.646;23.380;2022-10-16T03:12:39;95309.38;;;8.48;90.52
3968;BME280;9221;42.646;23.380;2022-10-16T03:15:05;95298.84;;;8.59;90.77
3968;BME280;9221;42.646;23.380;2022-10-16T03:17:32;95309.25;;;8.50;91.23
3968;BME280;9221;42.646;23.380;2022-10-16T03:19:57;95317.00;;;8.40;92.15
3968;BME280;9221;42.646;23.380;2022-10-16T03:22:23;95240.66;;;7.96;92.83
3968;BME280;9221;42.646;23.380;2022-10-16T03:24:48;95243.78;;;8.01;92.48
3968;BME280;9221;42.646;23.380;2022-10-16T03:27:14;95302.09;;;8.52;92.59
3968;BME280;9221;42.646;23.380;2022-10-16T03:29:39;95314.03;;;8.56;92.01
3968;BME280;9221;42.646;23.380;2022-10-16T03:32:04;95306.16;;;8.56;91.87
3968;BME280;9221;42.646;23.380;2022-10-16T03:34:30;95342.47;;;8.51;91.73
3968;BME280;9221;42.646;23.380;2022-10-16T03:36:55;95318.09;;;8.60;92.00
3968;BME280;9221;42.646;23.380;2022-10-16T03:39:21;95312.34;;;8.66;91.11
3968;BME280;9221;42.646;23.380;2022-10-16T03:41:46;95274.09;;;8.17;90.83
3968;BME280;9221;42.646;23.380;2022-10-16T03:44:13;95300.97;;;8.20;91.91
3968;BME280;9221;42.646;23.380;2022-10-16T03:46:38;95317.22;;;8.25;92.28
3968;BME280;9221;42.646;23.380;2022-10-16T03:49:03;95310.63;;;8.20;92.75
3968;BME280;9221;42.646;23.380;2022-10-16T03:51:29;95322.38;;;8.27;92.43
3968;BME280;9221;42.646;23.380;2022-10-16T03:53:54;95355.06;;;8.23;92.42
3968;BME280;9221;42.646;23.380;2022-10-16T03:56:20;95249.00;;;7.90;91.81
3968;BME280;9221;42.646;23.380;2022-10-16T03:58:45;95322.59;;;8.24;91.45
3968;BME280;9221;42.646;23.380;2022-10-16T04:01:11;95305.03;;;8.24;91.83
3968;BME280;9221;42.646;23.380;2022-10-16T04:03:36;95365.38;;;8.37;91.62
3968;BME280;9221;42.646;23.380;2022-10-16T04:06:02;95350.22;;;8.41;91.18
3968;BME280;9221;42.646;23.380;2022-10-16T04:08:28;95317.88;;;8.52;90.79
3968;BME280;9221;42.646;23.380;2022-10-16T04:10:53;95330.00;;;8.41;90.63
3968;BME280;9221;42.646;23.380;2022-10-16T04:13:18;95253.78;;;8.07;90.98
3968;BME280;9221;42.646;23.380;2022-10-16T04:15:45;95309.94;;;8.40;90.97
3968;BME280;9221;42.646;23.380;2022-10-16T04:18:10;95389.25;;;8.34;91.60
3968;BME280;9221;42.646;23.380;2022-10-16T04:20:36;95323.81;;;8.31;91.46
3968;BME280;9221;42.646;23.380;2022-10-16T04:23:02;95252.34;;;8.03;91.34
3968;BME280;9221;42.646;23.380;2022-10-16T04:25:28;95275.53;;;8.21;91.53
3968;BME280;9221;42.646;23.380;2022-10-16T04:27:54;95317.34;;;8.35;91.13
3968;BME280;9221;42.646;23.380;2022-10-16T04:30:20;95308.50;;;8.36;91.33
3968;BME280;9221;42.646;23.380;2022-10-16T04:32:50;95307.78;;;8.34;91.18
3968;BME280;9221;42.646;23.380;2022-10-16T04:35:19;95296.91;;;8.27;91.28
3968;BME280;9221;42.646;23.380;2022-10-16T04:37:44;95267.66;;;8.32;90.56
3968;BME280;9221;42.646;23.380;2022-10-16T04:40:10;95329.91;;;8.88;90.19
3968;BME280;9221;42.646;23.380;2022-10-16T04:42:36;95374.00;;;9.07;89.16
3968;BME280;9221;42.646;23.380;2022-10-16T04:45:02;95300.66;;;8.59;87.60
3968;BME280;9221;42.646;23.380;2022-10-16T04:47:27;95311.88;;;8.72;87.14
3968;BME280;9221;42.646;23.380;2022-10-16T04:49:53;95374.50;;;8.78;87.55
3968;BME280;9221;42.646;23.380;2022-10-16T04:52:18;95338.41;;;8.69;87.82
3968;BME280;9221;42.646;23.380;2022-10-16T04:54:44;95348.44;;;8.75;88.03
3968;BME280;9221;42.646;23.380;2022-10-16T04:57:10;95283.19;;;8.35;88.06
3968;BME280;9221;42.646;23.380;2022-10-16T04:59:36;95344.41;;;8.60;88.09
3968;BME280;9221;42.646;23.380;2022-10-16T05:02:01;95378.25;;;8.29;88.99
3968;BME280;9221;42.646;23.380;2022-10-16T05:04:27;95356.53;;;8.38;89.23
3968;BME280;9221;42.646;23.380;2022-10-16T05:06:52;95358.41;;;8.25;89.91
3968;BME280;9221;42.646;23.380;2022-10-16T05:09:18;95395.59;;;8.43;89.84
3968;BME280;9221;42.646;23.380;2022-10-16T05:11:43;95362.28;;;8.43;89.86
3968;BME280;9221;42.646;23.380;2022-10-16T05:14:08;95329.97;;;8.19;89.89
3968;BME280;9221;42.646;23.380;2022-10-16T05:16:34;95337.91;;;8.30;89.43
3968;BME280;9221;42.646;23.380;2022-10-16T05:18:59;95210.53;;;7.55;88.71
3968;BME280;9221;42.646;23.380;2022-10-16T05:21:25;95394.09;;;8.52;89.06
3968;BME280;9221;42.646;23.380;2022-10-16T05:23:50;95373.97;;;8.39;88.57
3968;BME280;9221;42.646;23.380;2022-10-16T05:26:16;95396.78;;;8.39;89.45
3968;BME280;9221;42.646;23.380;2022-10-16T05:28:41;95410.78;;;8.39;89.77
3968;BME280;9221;42.646;23.380;2022-10-16T05:31:08;95384.97;;;8.44;89.47
3968;BME280;9221;42.646;23.380;2022-10-16T05:33:33;95372.06;;;8.41;89.65
3968;BME280;9221;42.646;23.380;2022-10-16T05:36:07;95378.63;;;8.36;90.47
3968;BME280;9221;42.646;23.380;2022-10-16T05:38:36;95373.28;;;8.49;90.07
3968;BME280;9221;42.646;23.380;2022-10-16T05:41:03;95402.81;;;8.52;89.79
3968;BME280;9221;42.646;23.380;2022-10-16T05:43:29;95370.06;;;8.45;90.12
3968;BME280;9221;42.646;23.380;2022-10-16T05:46:03;95324.72;;;8.07;90.15
3968;BME280;9221;42.646;23.380;2022-10-16T05:48:30;95371.16;;;8.54;89.86
3968;BME280;9221;42.646;23.380;2022-10-16T05:51:01;95390.03;;;8.59;89.50
3968;BME280;9221;42.646;23.380;2022-10-16T05:53:28;95382.03;;;8.60;89.67
3968;BME280;9221;42.646;23.380;2022-10-16T05:55:55;95318.06;;;8.37;89.34
3968;BME280;9221;42.646;23.380;2022-10-16T05:58:21;95420.53;;;8.84;88.86
3968;BME280;9221;42.646;23.380;2022-10-16T06:01:05;95414.44;;;8.95;88.51
3968;BME280;9221;42.646;23.380;2022-10-16T06:03:32;95402.00;;;9.08;87.80
3968;BME280;9221;42.646;23.380;2022-10-16T06:05:58;95405.34;;;8.99;88.25
3968;BME280;9221;42.646;23.380;2022-10-16T06:08:23;95408.81;;;9.00;88.04
3968;BME280;9221;42.646;23.380;2022-10-16T06:11:03;95452.22;;;9.05;88.29
3968;BME280;9221;42.646;23.380;2022-10-16T06:13:29;95338.66;;;8.66;87.41
3968;BME280;9221;42.646;23.380;2022-10-16T06:15:57;95444.53;;;9.36;87.08
3968;BME280;9221;42.646;23.380;2022-10-16T06:18:23;95440.72;;;9.52;85.73
3968;BME280;9221;42.646;23.380;2022-10-16T06:20:49;95431.59;;;9.56;85.85
3968;BME280;9221;42.646;23.380;2022-10-16T06:23:14;95423.84;;;9.87;85.75
3968;BME280;9221;42.646;23.380;2022-10-16T06:25:39;95444.03;;;9.97;83.92
3968;BME280;9221;42.646;23.380;2022-10-16T06:28:05;95383.22;;;9.68;83.61
3968;BME280;9221;42.646;23.380;2022-10-16T06:30:30;95439.91;;;10.48;83.73
3968;BME280;9221;42.646;23.380;2022-10-16T06:32:55;95433.59;;;10.61;80.98
3968;BME280;9221;42.646;23.380;2022-10-16T06:35:21;95456.75;;;10.36;81.38
3968;BME280;9221;42.646;23.380;2022-10-16T06:37:47;95458.78;;;10.54;81.30
3968;BME280;9221;42.646;23.380;2022-10-16T06:40:12;95438.44;;;10.87;80.02
3968;BME280;9221;42.646;23.380;2022-10-16T06:42:39;95430.88;;;10.72;79.56
3968;BME280;9221;42.646;23.380;2022-10-16T06:45:05;95453.25;;;10.99;78.80
3968;BME280;9221;42.646;23.380;2022-10-16T06:47:31;95417.88;;;10.80;79.65
3968;BME280;9221;42.646;23.380;2022-10-16T06:49:56;95385.31;;;11.01;78.82
3968;BME280;9221;42.646;23.380;2022-10-16T06:52:22;95474.09;;;11.83;77.07
3968;BME280;9221;42.646;23.380;2022-10-16T06:54:47;95436.19;;;12.24;76.29
3968;BME280;9221;42.646;23.380;2022-10-16T06:57:14;95460.81;;;12.73;74.26
3968;BME280;9221;42.646;23.380;2022-10-16T06:59:39;95446.22;;;13.16;73.22
3968;BME280;9221;42.646;23.380;2022-10-16T07:02:05;95458.63;;;13.53;72.12
3968;BME280;9221;42.646;23.380;2022-10-16T07:04:32;95444.69;;;13.79;70.62
3968;BME280;9221;42.646;23.380;2022-10-16T07:06:57;95429.22;;;13.93;70.09
3968;BME280;9221;42.646;23.380;2022-10-16T07:09:22;95474.50;;;14.45;67.63
3968;BME280;9221;42.646;23.380;2022-10-16T07:11:48;95484.06;;;14.56;67.04
3968;BME280;9221;42.646;23.380;2022-10-16T07:14:16;95405.06;;;14.76;66.62
3968;BME280;9221;42.646;23.380;2022-10-16T07:16:41;95471.16;;;15.32;64.85
3968;BME280;9221;42.646;23.380;2022-10-16T07:19:08;95468.47;;;15.58;64.44
3968;BME280;9221;42.646;23.380;2022-10-16T07:21:34;95484.66;;;15.73;63.31
3968;BME280;9221;42.646;23.380;2022-10-16T07:24:10;95496.94;;;15.66;62.28
3968;BME280;9221;42.646;23.380;2022-10-16T07:26:37;95488.19;;;16.33;60.80
3968;BME280;9221;42.646;23.380;2022-10-16T07:29:07;95466.28;;;16.47;60.88
3968;BME280;9221;42.646;23.380;2022-10-16T07:31:36;95455.13;;;16.77;60.45
3968;BME280;9221;42.646;23.380;2022-10-16T07:34:01;95465.75;;;17.09;58.31
3968;BME280;9221;42.646;23.380;2022-10-16T07:36:27;95468.91;;;17.21;57.63
3968;BME280;9221;42.646;23.380;2022-10-16T07:38:52;95441.09;;;17.24;57.13
3968;BME280;9221;42.646;23.380;2022-10-16T07:41:19;95474.16;;;17.54;56.13
3968;BME280;9221;42.646;23.380;2022-10-16T07:43:46;95371.03;;;16.90;56.57
3968;BME280;9221;42.646;23.380;2022-10-16T07:46:12;95481.72;;;18.22;55.51
3968;BME280;9221;42.646;23.380;2022-10-16T07:48:38;95478.19;;;18.30;53.56
3968;BME280;9221;42.646;23.380;2022-10-16T07:51:05;95454.94;;;18.15;54.49
3968;BME280;9221;42.646;23.380;2022-10-16T07:53:32;95410.28;;;18.01;53.17
3968;BME280;9221;42.646;23.380;2022-10-16T07:56:05;95455.78;;;17.68;54.24
3968;BME280;9221;42.646;23.380;2022-10-16T07:58:32;95460.91;;;17.30;56.83
3968;BME280;9221;42.646;23.380;2022-10-16T08:00:58;95480.31;;;18.34;54.88
3968;BME280;9221;42.646;23.380;2022-10-16T08:03:25;95476.09;;;18.94;51.36
3968;BME280;9221;42.646;23.380;2022-10-16T08:05:51;95487.63;;;19.48;51.21
3968;BME280;9221;42.646;23.380;2022-10-16T08:08:17;95469.63;;;19.72;49.43
3968;BME280;9221;42.646;23.380;2022-10-16T08:10:43;95459.84;;;19.94;49.02
3968;BME280;9221;42.646;23.380;2022-10-16T08:13:09;95439.75;;;19.53;48.95
3968;BME280;9221;42.646;23.380;2022-10-16T08:15:35;95422.63;;;18.94;50.20
3968;BME280;9221;42.646;23.380;2022-10-16T08:18:02;95458.78;;;19.20;49.90
3968;BME280;9221;42.646;23.380;2022-10-16T08:20:29;95457.09;;;18.89;50.03
3968;BME280;9221;42.646;23.380;2022-10-16T08:22:54;95476.44;;;19.59;49.46
3968;BME280;9221;42.646;23.380;2022-10-16T08:25:22;95468.78;;;19.26;49.13
3968;BME280;9221;42.646;23.380;2022-10-16T08:27:48;95422.72;;;19.76;48.58
3968;BME280;9221;42.646;23.380;2022-10-16T08:30:15;95427.34;;;20.55;45.11
3968;BME280;9221;42.646;23.380;2022-10-16T08:32:40;95467.75;;;21.25;45.00
3968;BME280;9221;42.646;23.380;2022-10-16T08:35:10;95469.59;;;20.96;45.00
3968;BME280;9221;42.646;23.380;2022-10-16T08:37:36;95464.00;;;21.20;44.13
3968;BME280;9221;42.646;23.380;2022-10-16T08:40:01;95474.03;;;20.24;45.62
3968;BME280;9221;42.646;23.380;2022-10-16T08:50:32;95464.38;;;23.10;41.62
3968;BME280;9221;42.646;23.380;2022-10-16T08:53:00;95470.97;;;22.81;40.36
3968;BME280;9221;42.646;23.380;2022-10-16T08:55:42;95413.00;;;22.45;38.71
3968;BME280;9221;42.646;23.380;2022-10-16T08:58:29;95471.41;;;22.98;37.82
3968;BME280;9221;42.646;23.380;2022-10-16T09:01:01;95475.94;;;22.77;38.50
3968;BME280;9221;42.646;23.380;2022-10-16T09:07:04;95466.00;;;23.72;35.92
3968;BME280;9221;42.646;23.380;2022-10-16T09:15:23;95460.41;;;23.66;36.55
3968;BME280;9221;42.646;23.380;2022-10-16T09:18:06;95477.63;;;23.39;35.73
3968;BME280;9221;42.646;23.380;2022-10-16T09:21:30;95464.81;;;23.27;36.00
3968;BME280;9221;42.646;23.380;2022-10-16T09:23:34;95481.16;;;23.39;36.19
3968;BME280;9221;42.646;23.380;2022-10-16T09:26:01;95466.56;;;23.87;35.25
3968;BME280;9221;42.646;23.380;2022-10-16T09:28:27;95467.19;;;23.89;35.12
3968;BME280;9221;42.646;23.380;2022-10-16T09:30:53;95468.63;;;22.38;37.35
3968;BME280;9221;42.646;23.380;2022-10-16T09:33:22;95486.50;;;22.92;37.18
3968;BME280;9221;42.646;23.380;2022-10-16T09:35:51;95410.06;;;22.33;37.15
3968;BME280;9221;42.646;23.380;2022-10-16T09:38:35;95458.59;;;23.20;37.71
3968;BME280;9221;42.646;23.380;2022-10-16T09:41:21;95455.59;;;24.41;34.97
3968;BME280;9221;42.646;23.380;2022-10-16T09:43:55;95460.66;;;23.05;34.21
3968;BME280;9221;42.646;23.380;2022-10-16T09:46:30;95442.22;;;22.88;36.10
3968;BME280;9221;42.646;23.380;2022-10-16T09:48:59;95371.22;;;23.29;34.63
3968;BME280;9221;42.646;23.380;2022-10-16T09:51:28;95444.78;;;24.47;33.16
3968;BME280;9221;42.646;23.380;2022-10-16T09:54:02;95455.06;;;25.21;32.68
3968;BME280;9221;42.646;23.380;2022-10-16T09:56:37;95380.09;;;24.98;31.84
3968;BME280;9221;42.646;23.380;2022-10-16T09:59:13;95448.84;;;25.46;31.82
3968;BME280;9221;42.646;23.380;2022-10-16T10:01:49;95467.94;;;25.70;31.15
3968;BME280;9221;42.646;23.380;2022-10-16T10:04:17;95402.19;;;25.57;30.82
3968;BME280;9221;42.646;23.380;2022-10-16T10:06:47;95446.63;;;26.35;30.09
3968;BME280;9221;42.646;23.380;2022-10-16T10:11:45;95477.72;;;26.45;30.25
3968;BME280;9221;42.646;23.380;2022-10-16T10:16:45;95374.53;;;25.62;31.46
3968;BME280;9221;42.646;23.380;2022-10-16T10:19:19;95416.66;;;26.07;29.83
3968;BME280;9221;42.646;23.380;2022-10-16T10:21:45;95440.50;;;25.73;30.12
3968;BME280;9221;42.646;23.380;2022-10-16T10:24:12;95418.03;;;24.46;31.87
3968;BME280;9221;42.646;23.380;2022-10-16T10:26:41;95425.69;;;25.31;30.84
3968;BME280;9221;42.646;23.380;2022-10-16T10:29:13;95422.78;;;26.14;30.72
3968;BME280;9221;42.646;23.380;2022-10-16T10:31:49;95395.84;;;26.07;30.99
3968;BME280;9221;42.646;23.380;2022-10-16T10:42:59;95412.03;;;26.98;29.60
3968;BME280;9221;42.646;23.380;2022-10-16T10:45:47;95416.50;;;26.62;29.56
3968;BME280;9221;42.646;23.380;2022-10-16T10:48:43;95349.06;;;24.63;29.60
3968;BME280;9221;42.646;23.380;2022-10-16T10:51:21;95402.28;;;23.12;33.06
3968;BME280;9221;42.646;23.380;2022-10-16T10:56:58;95401.38;;;25.31;29.98
3968;BME280;9221;42.646;23.380;2022-10-16T10:59:32;95414.19;;;25.61;31.17
3968;BME280;9221;42.646;23.380;2022-10-16T11:07:38;95383.75;;;25.54;28.81
3968;BME280;9221;42.646;23.380;2022-10-16T11:10:27;95339.38;;;24.81;28.35
3968;BME280;9221;42.646;23.380;2022-10-16T11:13:01;95365.97;;;25.21;29.39
3968;BME280;9221;42.646;23.380;2022-10-16T11:15:35;95374.44;;;25.06;28.65
3968;BME280;9221;42.646;23.380;2022-10-16T11:18:08;95439.94;;;24.63;29.64
3968;BME280;9221;42.646;23.380;2022-10-16T11:20:50;95385.22;;;24.49;29.67
3968;BME280;9221;42.646;23.380;2022-10-16T11:23:31;95377.75;;;23.60;31.05
3968;BME280;9221;42.646;23.380;2022-10-16T11:26:05;95360.06;;;23.19;31.76
3968;BME280;9221;42.646;23.380;2022-10-16T11:28:42;95384.41;;;22.30;31.91
3968;BME280;9221;42.646;23.380;2022-10-16T11:31:17;95344.69;;;22.06;33.63
3968;BME280;9221;42.646;23.380;2022-10-16T11:33:49;95448.84;;;22.04;33.54
3968;BME280;9221;42.646;23.380;2022-10-16T11:36:25;95401.63;;;21.81;34.41
3968;BME280;9221;42.646;23.380;2022-10-16T11:46:37;95331.03;;;20.75;36.40
3968;BME280;9221;42.646;23.380;2022-10-16T11:49:15;95347.81;;;20.34;36.44
3968;BME280;9221;42.646;23.380;2022-10-16T11:51:59;95309.97;;;20.01;37.43
3968;BME280;9221;42.646;23.380;2022-10-16T11:54:45;95409.84;;;20.16;37.69
3968;BME280;9221;42.646;23.380;2022-10-16T11:57:32;95372.53;;;19.93;38.18
3968;BME280;9221;42.646;23.380;2022-10-16T12:08:14;95372.47;;;19.56;38.80
3968;BME280;9221;42.646;23.380;2022-10-16T12:10:43;95374.84;;;19.66;38.21
3968;BME280;9221;42.646;23.380;2022-10-16T12:13:28;95373.66;;;19.69;38.33
3968;BME280;9221;42.646;23.380;2022-10-16T12:16:20;95391.91;;;19.65;38.27
3968;BME280;9221;42.646;23.380;2022-10-16T12:18:47;95311.47;;;19.15;38.94
3968;BME280;9221;42.646;23.380;2022-10-16T12:21:14;95336.53;;;19.14;39.07
3968;BME280;9221;42.646;23.380;2022-10-16T12:23:55;95357.53;;;19.47;38.64
3968;BME280;9221;42.646;23.380;2022-10-16T12:26:30;95378.44;;;19.58;39.20
3968;BME280;9221;42.646;23.380;2022-10-16T12:29:09;95312.56;;;19.36;38.66
3968;BME280;9221;42.646;23.380;2022-10-16T12:31:47;95377.69;;;19.79;37.88
3968;BME280;9221;42.646;23.380;2022-10-16T12:34:41;95375.03;;;19.65;37.92
3968;BME280;9221;42.646;23.380;2022-10-16T12:37:28;95404.91;;;19.68;38.06
3968;BME280;9221;42.646;23.380;2022-10-16T12:39:56;95311.63;;;19.28;37.77
3968;BME280;9221;42.646;23.380;2022-10-16T12:44:55;95393.50;;;19.59;38.33
3968;BME280;9221;42.646;23.380;2022-10-16T12:49:59;95312.56;;;19.06;38.77
3968;BME280;9221;42.646;23.380;2022-10-16T12:52:35;95404.50;;;19.50;38.73
3968;BME280;9221;42.646;23.380;2022-10-16T12:55:01;95374.69;;;19.53;38.84
3968;BME280;9221;42.646;23.380;2022-10-16T13:01:03;95413.78;;;19.69;38.75
3968;BME280;9221;42.646;23.380;2022-10-16T13:03:43;95418.38;;;19.75;39.30
3968;BME280;9221;42.646;23.380;2022-10-16T13:06:43;95378.72;;;19.64;38.65
3968;BME280;9221;42.646;23.380;2022-10-16T13:22:48;95364.91;;;19.45;39.11
3968;BME280;9221;42.646;23.380;2022-10-16T13:28:08;95364.84;;;19.53;38.97
3968;BME280;9221;42.646;23.380;2022-10-16T13:30:40;95415.72;;;19.60;38.30
3968;BME280;9221;42.646;23.380;2022-10-16T13:35:54;95396.56;;;19.11;38.51
3968;BME280;9221;42.646;23.380;2022-10-16T13:38:24;95386.41;;;19.52;38.58
3968;BME280;9221;42.646;23.380;2022-10-16T13:41:00;95389.84;;;19.45;38.51
3968;BME280;9221;42.646;23.380;2022-10-16T13:43:35;95350.44;;;19.09;38.85
3968;BME280;9221;42.646;23.380;2022-10-16T13:46:25;95403.69;;;19.49;38.48
3968;BME280;9221;42.646;23.380;2022-10-16T13:48:59;95231.28;;;18.55;38.36
3968;BME280;9221;42.646;23.380;2022-10-16T13:51:26;95362.44;;;18.99;38.65
3968;BME280;9221;42.646;23.380;2022-10-16T13:53:52;95388.91;;;19.53;38.88
3968;BME280;9221;42.646;23.380;2022-10-16T13:56:21;95395.91;;;19.54;38.70
3968;BME280;9221;42.646;23.380;2022-10-16T13:59:06;95397.19;;;19.58;38.90
3968;BME280;9221;42.646;23.380;2022-10-16T14:01:35;95430.97;;;19.59;39.77
3968;BME280;9221;42.646;23.380;2022-10-16T14:04:10;95383.56;;;19.53;39.27
3968;BME280;9221;42.646;23.380;2022-10-16T14:06:40;95349.72;;;19.31;39.48
3968;BME280;9221;42.646;23.380;2022-10-16T14:09:11;95394.25;;;19.53;38.76
3968;BME280;9221;42.646;23.380;2022-10-16T14:11:49;95409.47;;;19.53;39.47
3968;BME280;9221;42.646;23.380;2022-10-16T14:14:17;95401.00;;;19.49;39.09
3968;BME280;9221;42.646;23.380;2022-10-16T14:16:44;95401.16;;;19.33;39.66
3968;BME280;9221;42.646;23.380;2022-10-16T14:19:22;95399.88;;;19.28;38.44
3968;BME280;9221;42.646;23.380;2022-10-16T14:21:50;95404.09;;;19.08;38.94
3968;BME280;9221;42.646;23.380;2022-10-16T14:24:31;95371.13;;;18.77;38.83
3968;BME280;9221;42.646;23.380;2022-10-16T14:26:57;95361.53;;;18.68;38.83
3968;BME280;9221;42.646;23.380;2022-10-16T14:29:25;95422.47;;;19.11;38.79
3968;BME280;9221;42.646;23.380;2022-10-16T14:32:02;95416.63;;;18.92;39.14
3968;BME280;9221;42.646;23.380;2022-10-16T14:34:34;95288.81;;;18.05;38.80
3968;BME280;9221;42.646;23.380;2022-10-16T14:39:52;95421.53;;;18.81;39.21
3968;BME280;9221;42.646;23.380;2022-10-16T14:42:19;95424.28;;;18.72;39.07
3968;BME280;9221;42.646;23.380;2022-10-16T14:44:46;95441.22;;;18.65;39.04
3968;BME280;9221;42.646;23.380;2022-10-16T14:47:20;95421.78;;;18.71;39.30
3968;BME280;9221;42.646;23.380;2022-10-16T14:49:49;95451.25;;;18.63;39.47
3968;BME280;9221;42.646;23.380;2022-10-16T14:52:15;95327.94;;;17.89;39.90
3968;BME280;9221;42.646;23.380;2022-10-16T14:54:41;95426.47;;;18.54;39.36
3968;BME280;9221;42.646;23.380;2022-10-16T14:57:16;95416.72;;;18.38;40.18
3968;BME280;9221;42.646;23.380;2022-10-16T14:59:43;95251.88;;;17.16;39.71
3968;BME280;9221;42.646;23.380;2022-10-16T15:04:42;95424.78;;;18.30;40.76
3968;BME280;9221;42.646;23.380;2022-10-16T15:07:08;95401.88;;;18.12;41.18
3968;BME280;9221;42.646;23.380;2022-10-16T15:09:33;95438.19;;;18.21;41.23
3968;BME280;9221;42.646;23.380;2022-10-16T15:11:59;95444.91;;;18.17;41.72
3968;BME280;9221;42.646;23.380;2022-10-16T15:14:24;95397.06;;;17.76;42.15